Time;durP1;ratioP1;P1;durP2;ratioP2;P2;SDS_P1;SDS_P2;PMS_P1;PMS_P2;Temp;Humidity;BMP_temperature;BMP_pressure;BME280_temperature;BME280_humidity;BME280_pressure;Samples;Min_cycle;Max_cycle;Signal;HPM_P1;HPM_P2
2021/11/06 00:01:47;;;;;;;3.78;1.63;;;12.50;99.90;;;;;;5011640;28;20061;-74
2021/11/06 00:04:13;;;;;;;3.00;1.67;;;12.50;99.90;;;;;;5011613;28;20040;-73
2021/11/06 00:06:39;;;;;;;2.58;1.45;;;12.50;99.90;;;;;;5011468;28;20030;-74
2021/11/06 00:09:05;;;;;;;2.17;1.65;;;12.50;99.90;;;;;;5011500;28;20064;-74
2021/11/06 00:11:31;;;;;;;6.10;1.80;;;12.50;99.90;;;;;;5011506;28;20069;-75
2021/11/06 00:13:57;;;;;;;7.20;1.92;;;12.50;99.90;;;;;;5013254;28;20042;-74
2021/11/06 00:16:22;;;;;;;2.15;1.75;;;12.50;99.90;;;;;;5015244;28;20034;-74
2021/11/06 00:18:48;;;;;;;12.52;2.20;;;12.50;99.90;;;;;;5015057;28;20034;-74
2021/11/06 00:21:14;;;;;;;3.00;1.70;;;12.50;99.90;;;;;;4997607;28;20113;-75
2021/11/06 00:23:40;;;;;;;5.68;1.90;;;12.40;99.90;;;;;;5015132;28;20037;-74
2021/11/06 00:26:05;;;;;;;5.05;2.00;;;12.40;99.90;;;;;;5015362;28;20064;-73
2021/11/06 00:28:31;;;;;;;4.22;1.75;;;12.40;99.90;;;;;;5015068;28;20038;-74
2021/11/06 00:30:57;;;;;;;5.72;1.98;;;12.40;99.90;;;;;;5014304;28;20552;-74
2021/11/06 00:33:22;;;;;;;2.95;1.77;;;12.30;99.90;;;;;;5014647;28;20466;-74
2021/11/06 00:35:48;;;;;;;6.15;2.00;;;12.30;99.90;;;;;;5015336;28;20033;-73
2021/11/06 00:38:14;;;;;;;4.15;1.90;;;12.30;99.90;;;;;;5015639;28;20029;-74
2021/11/06 00:40:39;;;;;;;4.53;1.88;;;12.30;99.90;;;;;;5015705;28;20173;-75
2021/11/06 00:43:05;;;;;;;2.50;1.92;;;12.30;99.90;;;;;;4997924;28;20041;-74
2021/11/06 00:45:31;;;;;;;5.55;1.98;;;12.30;99.90;;;;;;5015776;28;20040;-74
2021/11/06 00:47:56;;;;;;;5.05;2.10;;;12.20;99.90;;;;;;5015589;28;20406;-74
2021/11/06 00:50:22;;;;;;;3.42;1.95;;;12.20;99.90;;;;;;5015251;28;20030;-75
2021/11/06 00:52:49;;;;;;;6.20;2.42;;;12.20;99.90;;;;;;5014850;28;20042;-75
2021/11/06 00:55:16;;;;;;;3.95;2.30;;;12.20;99.90;;;;;;5014921;28;20431;-74
2021/11/06 00:57:42;;;;;;;3.00;1.98;;;12.20;99.90;;;;;;5014995;28;20068;-74
2021/11/06 01:00:11;;;;;;;3.60;2.70;;;12.20;99.90;;;;;;5014842;28;20088;-75
2021/11/06 01:02:38;;;;;;;3.72;2.10;;;12.10;99.90;;;;;;5014834;28;20034;-74
2021/11/06 01:05:06;;;;;;;6.80;1.95;;;12.20;99.90;;;;;;5015063;28;20065;-74
2021/11/06 01:07:32;;;;;;;3.65;2.15;;;12.10;99.90;;;;;;5015259;28;20034;-71
2021/11/06 01:09:58;;;;;;;10.10;2.03;;;12.10;99.90;;;;;;5015305;28;20030;-74
2021/11/06 01:12:24;;;;;;;9.43;2.00;;;12.10;99.90;;;;;;5014787;28;20038;-74
2021/11/06 01:14:50;;;;;;;3.08;2.00;;;12.10;99.90;;;;;;5015345;28;20030;-74
2021/11/06 01:17:15;;;;;;;3.83;2.13;;;12.00;99.90;;;;;;5014986;28;20133;-74
2021/11/06 01:19:41;;;;;;;3.45;2.20;;;12.00;99.90;;;;;;5014922;28;20033;-74
2021/11/06 01:22:07;;;;;;;8.32;1.73;;;12.00;99.90;;;;;;5014017;28;20030;-74
2021/11/06 01:24:32;;;;;;;3.38;2.30;;;12.00;99.90;;;;;;5014730;28;20034;-75
2021/11/06 01:26:58;;;;;;;6.20;2.00;;;12.00;99.90;;;;;;5014258;28;20038;-74
2021/11/06 01:29:24;;;;;;;3.85;2.13;;;12.00;99.90;;;;;;5014528;28;20482;-74
2021/11/06 01:31:50;;;;;;;5.10;2.08;;;12.00;99.90;;;;;;5014701;28;20046;-74
2021/11/06 01:34:16;;;;;;;3.33;2.13;;;12.00;99.90;;;;;;5016902;28;20022;-74
2021/11/06 01:36:42;;;;;;;4.30;2.13;;;12.00;99.90;;;;;;5014372;28;20030;-74
2021/11/06 01:39:07;;;;;;;3.20;2.13;;;12.00;99.90;;;;;;5014199;28;20057;-75
2021/11/06 01:41:34;;;;;;;4.13;2.45;;;12.00;99.90;;;;;;5013231;28;20038;-75
2021/11/06 01:44:01;;;;;;;14.70;2.20;;;12.00;99.90;;;;;;5013516;28;20108;-76
2021/11/06 01:46:29;;;;;;;4.15;2.40;;;12.10;99.90;;;;;;5014754;28;20030;-75
2021/11/06 01:48:55;;;;;;;4.13;2.33;;;12.00;99.90;;;;;;5014764;28;20032;-74
2021/11/06 01:51:21;;;;;;;5.28;1.95;;;12.00;99.90;;;;;;5013864;28;20041;-73
2021/11/06 01:53:47;;;;;;;4.18;2.35;;;12.00;99.90;;;;;;5014321;28;20046;-74
2021/11/06 01:56:13;;;;;;;4.25;1.95;;;12.00;99.90;;;;;;5014374;28;20030;-74
2021/11/06 01:58:41;;;;;;;3.65;1.90;;;12.00;99.90;;;;;;5014196;28;20052;-75
2021/11/06 02:01:08;;;;;;;2.58;1.90;;;12.00;99.90;;;;;;5013844;28;20038;-76
2021/11/06 02:03:34;;;;;;;3.35;1.90;;;12.00;99.90;;;;;;5013934;28;20030;-74
2021/11/06 02:06:00;;;;;;;8.05;2.13;;;12.00;99.90;;;;;;5014049;28;20483;-74
2021/11/06 02:08:26;;;;;;;4.80;2.50;;;12.00;99.90;;;;;;5014000;28;20120;-74
2021/11/06 02:10:52;;;;;;;3.00;2.25;;;12.00;99.90;;;;;;5014167;28;20104;-76
2021/11/06 02:13:19;;;;;;;2.65;2.00;;;12.00;99.90;;;;;;5013675;28;20060;-74
2021/11/06 02:15:45;;;;;;;4.72;2.75;;;12.00;99.90;;;;;;5014050;28;20088;-74
2021/11/06 02:18:11;;;;;;;4.10;2.63;;;12.00;99.90;;;;;;5013490;28;20030;-76
2021/11/06 02:20:37;;;;;;;3.35;2.40;;;12.00;99.90;;;;;;5013370;28;20164;-74
2021/11/06 02:23:04;;;;;;;2.75;2.40;;;12.00;99.90;;;;;;5013702;28;20026;-74
2021/11/06 02:25:29;;;;;;;5.60;3.25;;;12.00;99.90;;;;;;5014234;28;20093;-74
2021/11/06 02:27:55;;;;;;;4.82;2.83;;;12.00;99.90;;;;;;5013479;28;20577;-75
2021/11/06 02:30:21;;;;;;;5.13;2.90;;;12.00;99.90;;;;;;5013512;28;20061;-76
2021/11/06 02:32:48;;;;;;;4.38;2.50;;;12.00;99.90;;;;;;5012451;28;20121;-73
2021/11/06 02:35:15;;;;;;;7.30;3.13;;;12.00;99.90;;;;;;5012410;28;20030;-75
2021/11/06 02:37:42;;;;;;;4.63;3.10;;;12.00;99.90;;;;;;5012463;28;20044;-74
2021/11/06 02:40:08;;;;;;;5.90;2.80;;;12.00;99.90;;;;;;5013227;28;20034;-74
2021/11/06 02:42:35;;;;;;;4.43;3.25;;;12.00;99.90;;;;;;5013414;28;20037;-74
2021/11/06 02:45:06;;;;;;;3.38;2.63;;;12.00;99.90;;;;;;5013360;28;20037;-74
2021/11/06 02:47:32;;;;;;;4.00;2.78;;;12.00;99.90;;;;;;4995953;28;20100;-74
2021/11/06 02:49:57;;;;;;;4.05;3.00;;;12.00;99.90;;;;;;5013285;28;20038;-74
2021/11/06 02:52:23;;;;;;;4.72;2.97;;;12.00;99.90;;;;;;5012433;28;20049;-74
2021/11/06 02:54:49;;;;;;;6.78;3.80;;;12.00;99.90;;;;;;5013031;28;20092;-75
2021/11/06 02:57:16;;;;;;;6.72;2.80;;;12.00;99.90;;;;;;5012473;28;20111;-75
2021/11/06 02:59:41;;;;;;;7.85;3.63;;;12.00;99.90;;;;;;5012914;28;20088;-74
2021/11/06 03:02:07;;;;;;;4.38;2.58;;;12.00;99.90;;;;;;5012712;28;20038;-74
2021/11/06 03:04:37;;;;;;;7.25;3.10;;;12.00;99.90;;;;;;5013246;28;20368;-75
2021/11/06 03:07:05;;;;;;;10.40;2.65;;;11.90;99.90;;;;;;5012770;28;20034;-74
2021/11/06 03:09:31;;;;;;;9.77;2.65;;;11.90;99.90;;;;;;5012738;28;20053;-74
2021/11/06 03:11:58;;;;;;;4.38;2.40;;;12.00;99.90;;;;;;5012935;28;20505;-75
2021/11/06 03:14:26;;;;;;;12.13;3.03;;;12.00;99.90;;;;;;5012977;28;20034;-74
2021/11/06 03:16:52;;;;;;;4.07;2.67;;;12.00;99.90;;;;;;5012416;28;20513;-74
2021/11/06 03:19:17;;;;;;;4.95;2.72;;;12.00;99.90;;;;;;5011606;28;20034;-75
2021/11/06 03:21:43;;;;;;;4.30;2.53;;;12.00;99.90;;;;;;5012353;28;20390;-76
2021/11/06 03:24:09;;;;;;;3.15;2.55;;;12.00;99.90;;;;;;5011929;28;20030;-74
2021/11/06 03:26:35;;;;;;;6.50;2.90;;;12.00;99.90;;;;;;4994292;28;20030;-75
2021/11/06 03:29:01;;;;;;;3.22;2.90;;;12.00;99.90;;;;;;5012863;28;20120;-75
2021/11/06 03:31:26;;;;;;;3.30;2.55;;;12.00;99.90;;;;;;5012421;28;20026;-75
2021/11/06 03:33:52;;;;;;;3.90;2.55;;;12.00;99.90;;;;;;5012485;28;20046;-74
2021/11/06 03:36:18;;;;;;;9.00;2.08;;;12.00;99.90;;;;;;5011966;28;20033;-76
2021/11/06 03:38:44;;;;;;;3.55;2.40;;;12.00;99.90;;;;;;5012174;28;20113;-75
2021/11/06 03:41:10;;;;;;;4.20;2.47;;;12.00;99.90;;;;;;5012108;28;20026;-74
2021/11/06 03:43:36;;;;;;;3.50;2.50;;;11.90;99.90;;;;;;5011905;28;20038;-75
2021/11/06 03:46:01;;;;;;;4.22;2.50;;;12.00;99.90;;;;;;5012102;28;20034;-75
2021/11/06 03:48:28;;;;;;;2.42;2.22;;;12.00;99.90;;;;;;5013323;28;20034;-75
2021/11/06 03:50:54;;;;;;;5.72;2.47;;;11.90;99.90;;;;;;5016548;28;20026;-74
2021/11/06 03:53:20;;;;;;;4.88;3.20;;;11.90;99.90;;;;;;5015808;28;20045;-75
2021/11/06 03:55:45;;;;;;;4.03;2.72;;;11.90;99.90;;;;;;5016444;28;20041;-74
2021/11/06 03:58:11;;;;;;;5.80;2.63;;;11.90;99.90;;;;;;5016202;28;20057;-74
2021/11/06 04:00:37;;;;;;;5.82;2.78;;;11.90;99.90;;;;;;5014580;28;20371;-74
2021/11/06 04:03:03;;;;;;;3.85;3.00;;;11.90;99.90;;;;;;5016699;28;20037;-74
2021/11/06 04:05:28;;;;;;;4.00;3.22;;;11.90;99.90;;;;;;5015545;28;20025;-74
2021/11/06 04:07:54;;;;;;;4.07;3.05;;;11.90;99.90;;;;;;5015368;28;20018;-73
2021/11/06 04:10:20;;;;;;;5.07;2.60;;;11.90;99.90;;;;;;5015464;28;20471;-74
2021/11/06 04:12:45;;;;;;;3.47;2.85;;;11.90;99.90;;;;;;5015056;28;20042;-73
2021/11/06 04:15:13;;;;;;;4.75;2.60;;;11.90;99.90;;;;;;5015641;28;20657;-75
2021/11/06 04:17:39;;;;;;;6.07;2.63;;;11.90;99.90;;;;;;5015132;28;20129;-74
2021/11/06 04:20:07;;;;;;;4.45;2.70;;;11.90;99.90;;;;;;5015489;28;20034;-74
2021/11/06 04:22:32;;;;;;;3.90;2.90;;;11.80;99.90;;;;;;5015260;28;20562;-74
2021/11/06 04:24:58;;;;;;;2.83;2.50;;;11.80;99.90;;;;;;5014629;28;20104;-73
2021/11/06 04:27:24;;;;;;;2.45;2.25;;;11.80;99.90;;;;;;5015219;28;20107;-74
2021/11/06 04:29:50;;;;;;;6.75;3.30;;;11.80;99.90;;;;;;5015254;28;20068;-74
2021/11/06 04:32:16;;;;;;;3.47;3.05;;;11.80;99.90;;;;;;5014932;28;20093;-75
2021/11/06 04:34:41;;;;;;;3.08;2.78;;;11.80;99.90;;;;;;5015150;28;20057;-74
2021/11/06 04:37:07;;;;;;;6.43;3.50;;;11.80;99.90;;;;;;5015254;28;20026;-73
2021/11/06 04:39:33;;;;;;;5.35;3.88;;;11.80;99.90;;;;;;5015231;28;20123;-75
2021/11/06 04:41:59;;;;;;;4.85;3.10;;;11.80;99.90;;;;;;5015128;28;20065;-74
2021/11/06 04:44:25;;;;;;;5.40;2.90;;;11.90;99.90;;;;;;5014707;28;20042;-74
2021/11/06 04:46:51;;;;;;;4.97;3.38;;;11.80;99.90;;;;;;5015039;28;20022;-75
2021/11/06 04:49:16;;;;;;;4.40;3.70;;;11.80;99.90;;;;;;5014802;28;20030;-74
2021/11/06 04:51:42;;;;;;;11.07;3.08;;;11.80;99.90;;;;;;5014561;28;20033;-74
2021/11/06 04:54:08;;;;;;;4.13;3.25;;;11.80;99.90;;;;;;5014875;28;20022;-75
2021/11/06 04:56:34;;;;;;;5.88;3.03;;;11.90;99.90;;;;;;5014835;28;20121;-75
2021/11/06 04:59:00;;;;;;;2.88;2.60;;;11.90;99.90;;;;;;5014738;28;20105;-75
2021/11/06 05:01:25;;;;;;;4.00;2.97;;;11.90;99.90;;;;;;5013680;28;20088;-74
2021/11/06 05:03:51;;;;;;;5.53;2.83;;;11.90;99.90;;;;;;5022578;28;20028;-74
2021/11/06 05:06:17;;;;;;;4.65;2.90;;;11.90;99.90;;;;;;5014812;28;20382;-73
2021/11/06 05:08:42;;;;;;;3.45;3.15;;;11.90;99.90;;;;;;5014841;28;20042;-74
2021/11/06 05:11:08;;;;;;;5.28;2.58;;;11.90;99.90;;;;;;5014198;28;20102;-74
2021/11/06 05:13:34;;;;;;;3.15;2.83;;;11.90;99.90;;;;;;5014758;28;20108;-74
2021/11/06 05:15:59;;;;;;;4.90;2.83;;;11.90;99.90;;;;;;4996872;28;20033;-74
2021/11/06 05:18:26;;;;;;;6.47;3.65;;;11.90;99.90;;;;;;5014410;28;20072;-74
2021/11/06 05:20:52;;;;;;;7.00;3.45;;;11.90;99.90;;;;;;5013980;28;20030;-74
2021/11/06 05:23:18;;;;;;;3.65;3.03;;;11.90;99.90;;;;;;4996452;28;20026;-74
2021/11/06 05:25:45;;;;;;;4.90;3.13;;;11.90;99.90;;;;;;5020636;28;20026;-75
2021/11/06 05:28:12;;;;;;;5.50;3.25;;;11.90;99.90;;;;;;5021874;28;20096;-74
2021/11/06 05:30:38;;;;;;;4.72;3.05;;;11.90;99.90;;;;;;5014413;28;20053;-75
2021/11/06 05:33:03;;;;;;;4.57;2.83;;;12.00;99.90;;;;;;5014179;28;20131;-74
2021/11/06 05:35:29;;;;;;;4.45;3.50;;;12.00;99.90;;;;;;5014070;28;20034;-74
2021/11/06 05:37:56;;;;;;;3.20;2.80;;;12.00;99.90;;;;;;5014058;28;20034;-75
2021/11/06 05:40:21;;;;;;;5.55;3.38;;;12.00;99.90;;;;;;5013924;28;20032;-74
2021/11/06 05:42:47;;;;;;;4.93;3.05;;;12.00;99.90;;;;;;5014187;28;20108;-74
2021/11/06 05:45:14;;;;;;;7.15;2.88;;;12.00;99.90;;;;;;5014307;28;20034;-74
2021/11/06 05:47:39;;;;;;;4.47;3.30;;;12.10;99.90;;;;;;5013968;28;20034;-74
2021/11/06 05:50:09;;;;;;;5.88;2.80;;;12.10;99.90;;;;;;5013871;28;20052;-73
2021/11/06 05:52:35;;;;;;;4.85;3.03;;;12.10;99.90;;;;;;5014139;28;20116;-74
2021/11/06 05:55:03;;;;;;;3.20;2.83;;;12.10;99.90;;;;;;5013584;28;20026;-74
2021/11/06 05:57:29;;;;;;;4.72;3.03;;;12.10;99.90;;;;;;5013608;28;20084;-73
2021/11/06 05:59:55;;;;;;;3.38;2.83;;;12.10;99.90;;;;;;5014007;28;20033;-74
2021/11/06 06:02:20;;;;;;;4.05;3.50;;;12.10;99.90;;;;;;5013833;28;20029;-75
2021/11/06 06:04:46;;;;;;;7.43;3.30;;;12.10;99.90;;;;;;5013512;28;20022;-74
2021/11/06 06:07:12;;;;;;;6.38;3.17;;;12.10;99.90;;;;;;5014053;28;20080;-74
2021/11/06 06:09:38;;;;;;;6.68;3.85;;;12.10;99.90;;;;;;5014253;28;20104;-73
2021/11/06 06:12:04;;;;;;;7.97;3.45;;;12.10;99.90;;;;;;5013346;28;20037;-74
2021/11/06 06:14:29;;;;;;;8.40;3.03;;;12.10;99.90;;;;;;5013806;28;20034;-73
2021/11/06 06:16:55;;;;;;;7.35;3.60;;;12.10;99.90;;;;;;5013443;28;20504;-73
2021/11/06 06:19:21;;;;;;;4.35;3.33;;;12.10;99.90;;;;;;5013155;28;20033;-73
2021/11/06 06:21:46;;;;;;;4.93;3.28;;;12.20;99.90;;;;;;5013543;28;20042;-74
2021/11/06 06:24:12;;;;;;;12.52;3.90;;;12.20;99.90;;;;;;5013592;28;20379;-73
2021/11/06 06:26:38;;;;;;;5.50;3.55;;;12.20;99.90;;;;;;5015129;28;20486;-74
2021/11/06 06:29:03;;;;;;;6.70;4.20;;;12.20;99.90;;;;;;5021584;28;20073;-73
2021/11/06 06:31:29;;;;;;;6.10;3.88;;;12.20;99.90;;;;;;5015416;28;20034;-74
2021/11/06 06:33:55;;;;;;;4.85;3.50;;;12.20;99.90;;;;;;5013808;28;20037;-74
2021/11/06 06:36:21;;;;;;;4.35;3.60;;;12.20;99.90;;;;;;5014699;28;20030;-74
2021/11/06 06:38:46;;;;;;;10.05;3.30;;;12.30;99.90;;;;;;5013668;28;20418;-73
2021/11/06 06:41:12;;;;;;;5.60;3.90;;;12.30;99.90;;;;;;5013005;28;20048;-73
2021/11/06 06:43:38;;;;;;;7.70;4.22;;;12.30;99.90;;;;;;4995662;28;20033;-73
2021/11/06 06:46:03;;;;;;;4.80;3.92;;;12.30;99.90;;;;;;4995722;28;20030;-73
2021/11/06 06:48:29;;;;;;;8.10;3.88;;;12.30;99.90;;;;;;5013037;28;20038;-74
2021/11/06 06:50:56;;;;;;;4.07;3.40;;;12.40;99.90;;;;;;5013286;28;20379;-74
2021/11/06 06:53:22;;;;;;;5.38;3.30;;;12.40;99.90;;;;;;5012687;28;20060;-74
2021/11/06 06:55:48;;;;;;;4.13;3.30;;;12.60;99.90;;;;;;5012291;28;20030;-74
2021/11/06 06:58:14;;;;;;;5.25;3.15;;;12.70;99.90;;;;;;5012141;28;20044;-73
2021/11/06 07:00:40;;;;;;;7.38;3.30;;;12.70;99.90;;;;;;5013059;28;20444;-74
2021/11/06 07:03:06;;;;;;;4.38;3.28;;;12.60;99.90;;;;;;5012906;28;20494;-74
2021/11/06 07:05:32;;;;;;;4.60;3.42;;;12.80;99.90;;;;;;5012590;28;20073;-73
2021/11/06 07:07:58;;;;;;;4.72;3.22;;;13.00;99.90;;;;;;5013076;28;20474;-73
2021/11/06 07:10:25;;;;;;;7.38;3.05;;;13.40;99.90;;;;;;5012595;28;20034;-73
2021/11/06 07:12:51;;;;;;;4.88;3.00;;;13.70;99.90;;;;;;5012728;28;20042;-73
2021/11/06 07:15:16;;;;;;;2.85;2.50;;;13.50;99.90;;;;;;5012905;28;20104;-73
2021/11/06 07:17:42;;;;;;;5.05;3.42;;;13.20;99.90;;;;;;5012494;28;20030;-73
2021/11/06 07:20:10;;;;;;;5.05;2.70;;;13.00;99.90;;;;;;5012759;28;20394;-73
2021/11/06 07:22:36;;;;;;;6.68;3.30;;;13.10;99.90;;;;;;5012534;28;20069;-73
2021/11/06 07:25:04;;;;;;;3.97;2.95;;;13.40;99.90;;;;;;5012696;28;20092;-73
2021/11/06 07:27:31;;;;;;;9.70;3.00;;;13.90;99.90;;;;;;5012444;28;20042;-73
2021/11/06 07:29:57;;;;;;;5.25;2.63;;;14.20;99.90;;;;;;4998963;28;20160;-73
2021/11/06 07:32:23;;;;;;;8.60;2.50;;;14.60;99.90;;;;;;5011383;28;20053;-73
2021/11/06 07:34:49;;;;;;;2.85;2.20;;;14.80;99.90;;;;;;5011262;28;20022;-73
2021/11/06 07:37:14;;;;;;;4.95;2.80;;;14.70;99.90;;;;;;5011997;28;20033;-73
2021/11/06 07:39:40;;;;;;;4.05;2.70;;;14.70;99.90;;;;;;4994308;28;20141;-73
2021/11/06 07:42:06;;;;;;;6.75;2.55;;;14.80;99.90;;;;;;5011587;28;20105;-75
2021/11/06 07:44:32;;;;;;;3.38;2.33;;;14.80;99.90;;;;;;5008973;28;20101;-72
2021/11/06 07:46:58;;;;;;;2.97;2.28;;;14.50;99.90;;;;;;5011552;28;20041;-74
2021/11/06 07:49:25;;;;;;;2.53;2.20;;;14.30;99.90;;;;;;5011424;28;20387;-73
2021/11/06 07:51:51;;;;;;;4.22;2.15;;;14.00;99.90;;;;;;5011364;28;20041;-73
2021/11/06 07:54:17;;;;;;;2.13;1.92;;;13.80;99.90;;;;;;4994131;28;20117;-72
2021/11/06 07:56:43;;;;;;;2.92;1.73;;;13.80;99.90;;;;;;5009410;28;20118;-74
2021/11/06 07:59:09;;;;;;;2.20;1.90;;;13.60;99.90;;;;;;5011915;28;20049;-73
2021/11/06 08:01:35;;;;;;;3.15;1.83;;;13.60;99.90;;;;;;5011574;28;20030;-72
2021/11/06 08:04:01;;;;;;;4.25;1.67;;;13.70;99.90;;;;;;5011803;28;20070;-72
2021/11/06 08:06:26;;;;;;;2.50;1.48;;;14.10;99.90;;;;;;5011518;28;20456;-73
2021/11/06 08:08:52;;;;;;;6.15;1.35;;;14.40;99.90;;;;;;5011005;28;20498;-72
2021/11/06 08:11:18;;;;;;;4.22;2.17;;;14.50;99.90;;;;;;5011384;28;20030;-73
2021/11/06 08:13:43;;;;;;;2.80;2.40;;;14.60;99.90;;;;;;5011117;28;20038;-73
2021/11/06 08:16:10;;;;;;;3.03;2.40;;;14.30;99.90;;;;;;4993835;28;20157;-72
2021/11/06 08:18:35;;;;;;;3.88;1.50;;;14.60;99.90;;;;;;5011399;28;20037;-73
2021/11/06 08:21:01;;;;;;;3.83;1.85;;;14.70;99.90;;;;;;5011414;28;20018;-73
2021/11/06 08:23:27;;;;;;;6.53;1.70;;;14.90;99.90;;;;;;4994146;28;20038;-73
2021/11/06 08:25:52;;;;;;;6.35;1.25;;;15.30;99.90;;;;;;5011786;28;20095;-73
2021/11/06 08:28:18;;;;;;;3.30;1.55;;;15.70;99.90;;;;;;5011313;28;20034;-74
2021/11/06 08:30:44;;;;;;;3.03;1.20;;;16.70;99.40;;;;;;5011770;28;20482;-74
2021/11/06 08:33:10;;;;;;;4.53;1.60;;;17.50;98.00;;;;;;5011483;28;20049;-73
2021/11/06 08:35:37;;;;;;;2.78;1.55;;;17.70;97.50;;;;;;5012402;28;20044;-73
2021/11/06 08:38:04;;;;;;;1.85;1.27;;;17.70;97.50;;;;;;5015592;28;20118;-72
2021/11/06 08:40:30;;;;;;;4.57;2.40;;;18.30;96.50;;;;;;5014528;28;20033;-75
2021/11/06 08:42:56;;;;;;;1.70;1.30;;;18.60;96.40;;;;;;5014967;28;20029;-75
2021/11/06 08:45:22;;;;;;;2.42;1.50;;;18.70;95.20;;;;;;5014660;28;20026;-74
2021/11/06 08:47:48;;;;;;;4.28;1.58;;;18.70;95.60;;;;;;5014927;28;20425;-74
2021/11/06 08:50:19;;;;;;;3.17;1.33;;;19.30;95.00;;;;;;5015203;28;20022;-74
2021/11/06 08:52:46;;;;;;;2.00;1.50;;;19.70;94.30;;;;;;5014538;28;20038;-73
2021/11/06 08:55:13;;;;;;;2.72;1.60;;;20.10;93.50;;;;;;5017223;28;20026;-72
2021/11/06 08:57:40;;;;;;;7.18;2.55;;;19.80;93.50;;;;;;5013809;28;20034;-74
2021/11/06 09:00:10;;;;;;;1.70;1.50;;;19.80;93.20;;;;;;5013707;28;20014;-74
2021/11/06 09:02:37;;;;;;;3.28;1.63;;;20.00;93.00;;;;;;5014236;28;20046;-77
2021/11/06 09:05:06;;;;;;;7.35;1.10;;;20.90;92.10;;;;;;5013573;28;20026;-74
2021/11/06 09:07:33;;;;;;;7.22;1.30;;;21.30;91.40;;;;;;5013447;28;20069;-73
2021/11/06 09:10:06;;;;;;;2.28;0.90;;;21.40;91.00;;;;;;5013226;28;20030;-75
2021/11/06 09:12:32;;;;;;;9.38;1.38;;;21.90;90.60;;;;;;5012990;28;20053;-75
2021/11/06 09:14:57;;;;;;;1.83;1.20;;;22.30;89.70;;;;;;5013179;28;20018;-74
2021/11/06 09:17:23;;;;;;;3.67;0.80;;;22.40;88.70;;;;;;5012285;28;20029;-74
2021/11/06 09:19:50;;;;;;;2.47;1.02;;;23.20;87.40;;;;;;5012439;28;20513;-72
2021/11/06 09:22:16;;;;;;;6.07;1.20;;;22.10;87.60;;;;;;5014156;28;20025;-73
2021/11/06 09:24:43;;;;;;;2.55;1.02;;;21.90;88.30;;;;;;5013932;28;20030;-73
2021/11/06 09:27:08;;;;;;;3.00;1.10;;;23.50;86.10;;;;;;5013071;28;20490;-75
2021/11/06 09:29:34;;;;;;;1.60;1.17;;;23.20;84.60;;;;;;5013764;28;20037;-73
2021/11/06 09:32:00;;;;;;;2.47;1.15;;;23.10;84.80;;;;;;5013249;28;20037;-73
2021/11/06 09:34:25;;;;;;;2.75;1.40;;;22.60;84.90;;;;;;5012805;28;20042;-72
2021/11/06 09:36:51;;;;;;;5.95;1.30;;;23.20;84.60;;;;;;5013575;28;20509;-72
2021/11/06 09:39:17;;;;;;;2.22;1.33;;;24.10;82.40;;;;;;5013148;28;20037;-76
2021/11/06 09:41:43;;;;;;;17.63;1.38;;;24.60;80.00;;;;;;5012332;28;20022;-74
2021/11/06 09:44:10;;;;;;;2.05;1.35;;;23.70;80.10;;;;;;5012829;28;20030;-75
2021/11/06 09:46:35;;;;;;;0.98;0.90;;;23.50;81.40;;;;;;5011977;28;20026;-75
2021/11/06 09:49:01;;;;;;;4.60;1.20;;;24.00;80.70;;;;;;5013097;28;20542;-73
2021/11/06 09:51:27;;;;;;;7.40;1.50;;;24.50;79.00;;;;;;5012164;28;20045;-74
2021/11/06 09:53:54;;;;;;;1.30;0.95;;;23.30;80.00;;;;;;5012788;28;20109;-72
2021/11/06 09:56:23;;;;;;;1.40;0.93;;;23.30;80.40;;;;;;5014483;28;20034;-74
2021/11/06 09:58:49;;;;;;;1.25;1.13;;;24.10;79.20;;;;;;5012807;28;20054;-72
2021/11/06 10:01:16;;;;;;;2.03;1.25;;;23.20;80.40;;;;;;5012750;28;20040;-72
2021/11/06 10:03:44;;;;;;;1.17;0.95;;;23.70;79.20;;;;;;5013221;28;20064;-74
2021/11/06 10:06:19;;;;;;;3.17;1.58;;;23.90;79.40;;;;;;5012875;28;20398;-73
2021/11/06 10:08:47;;;;;;;1.65;1.17;;;23.40;78.90;;;;;;5013129;28;20149;-73
2021/11/06 10:11:19;;;;;;;1.98;1.30;;;23.50;79.90;;;;;;5012181;28;20041;-74
2021/11/06 10:13:54;;;;;;;1.38;1.15;;;23.60;78.90;;;;;;5012218;28;20368;-73
2021/11/06 10:16:29;;;;;;;1.77;1.40;;;24.10;78.50;;;;;;5014309;28;20503;-73
2021/11/06 10:19:19;;;;;;;5.25;1.50;;;25.20;76.70;;;;;;5011781;28;20026;-73
2021/11/06 10:21:50;;;;;;;1.60;1.25;;;25.90;74.80;;;;;;5012980;28;20105;-73
2021/11/06 10:24:18;;;;;;;;;;;25.40;74.00;;;;;;5011435;28;20030;-73
2021/11/06 10:26:44;;;;;;;2.15;1.30;;;25.30;74.70;;;;;;5012174;28;19909;-73
2021/11/06 10:29:16;;;;;;;1.60;1.50;;;24.70;75.40;;;;;;5010800;28;20041;-73
2021/11/06 10:31:52;;;;;;;2.35;1.38;;;25.00;74.60;;;;;;5000268;28;20058;-73
2021/11/06 10:34:19;;;;;;;2.30;1.58;;;24.80;75.40;;;;;;5010355;28;20034;-73
2021/11/06 10:36:55;;;;;;;2.95;1.80;;;24.10;75.60;;;;;;4996209;28;20486;-73
2021/11/06 10:39:20;;;;;;;3.05;2.30;;;23.90;77.20;;;;;;5012665;28;20030;-72
2021/11/06 10:41:46;;;;;;;1.45;1.30;;;24.10;77.00;;;;;;5010130;28;20077;-72
2021/11/06 10:44:19;;;;;;;3.40;1.60;;;24.00;76.40;;;;;;5011270;28;20040;-73
2021/11/06 10:46:53;;;;;;;3.30;1.77;;;23.30;77.70;;;;;;5011866;28;20037;-72
2021/11/06 10:49:33;;;;;;;2.30;1.58;;;22.10;79.80;;;;;;5012546;28;20029;-73
2021/11/06 10:52:19;;;;;;;2.00;1.67;;;19.70;85.00;;;;;;5011616;28;20478;-72
2021/11/06 10:55:05;;;;;;;2.08;1.58;;;18.30;89.00;;;;;;5010590;28;20065;-71
2021/11/06 10:57:32;;;;;;;3.53;2.45;;;17.60;90.40;;;;;;5012182;28;20112;-73
2021/11/06 11:00:18;;;;;;;3.88;2.65;;;17.10;91.00;;;;;;4995054;28;20410;-73
2021/11/06 11:02:44;;;;;;;2.70;1.67;;;16.80;91.50;;;;;;5012866;28;20026;-73
2021/11/06 11:05:35;;;;;;;3.30;2.15;;;16.70;92.10;;;;;;5012808;28;20029;-74
2021/11/06 11:08:08;;;;;;;5.32;1.80;;;16.30;92.40;;;;;;5013076;28;20037;-73
2021/11/06 11:10:39;;;;;;;1.83;1.60;;;16.00;92.80;;;;;;5013050;28;20033;-72
2021/11/06 11:13:19;;;;;;;2.22;1.98;;;15.90;93.20;;;;;;5012729;28;20061;-73
2021/11/06 11:15:52;;;;;;;2.80;1.85;;;15.90;93.30;;;;;;5012718;28;20478;-71
2021/11/06 11:18:37;;;;;;;4.50;1.60;;;15.80;93.40;;;;;;5012903;28;20044;-74
2021/11/06 11:21:12;;;;;;;8.45;3.20;;;15.50;93.80;;;;;;4995306;28;20498;-75
2021/11/06 11:23:40;;;;;;;5.55;1.73;;;15.40;94.00;;;;;;5014423;28;20069;-73
2021/11/06 11:26:07;;;;;;;5.50;1.95;;;15.50;94.20;;;;;;5012807;28;20025;-75
2021/11/06 11:28:33;;;;;;;3.00;2.60;;;15.30;94.00;;;;;;5012291;28;20045;-75
2021/11/06 11:30:59;;;;;;;6.35;2.35;;;15.10;94.50;;;;;;4994539;28;20033;-75
2021/11/06 11:33:26;;;;;;;8.55;2.03;;;15.20;94.80;;;;;;5012754;28;20395;-74
2021/11/06 11:35:52;;;;;;;3.03;2.00;;;15.30;94.50;;;;;;5012541;28;20042;-75
2021/11/06 11:38:20;;;;;;;2.35;2.15;;;15.30;94.70;;;;;;5012029;28;20092;-78
2021/11/06 11:41:21;;;;;;;3.47;2.78;;;15.40;94.50;;;;;;5012756;28;20064;-79
2021/11/06 11:43:50;;;;;;;5.28;2.13;;;15.40;94.50;;;;;;4994023;28;20402;-75
2021/11/06 11:46:27;;;;;;;4.45;2.15;;;15.30;94.50;;;;;;5012279;28;20060;-77
2021/11/06 11:48:54;;;;;;;4.50;2.28;;;15.20;94.50;;;;;;5011322;28;20034;-75
2021/11/06 11:51:31;;;;;;;4.03;1.88;;;15.20;94.70;;;;;;4994610;28;20048;-75
2021/11/06 11:54:02;;;;;;;5.90;2.58;;;15.10;94.70;;;;;;5012786;28;20078;-76
2021/11/06 11:56:31;;;;;;;4.95;2.33;;;15.10;94.80;;;;;;5012587;28;20030;-75
2021/11/06 11:58:58;;;;;;;3.17;1.85;;;15.10;94.50;;;;;;5012456;28;20103;-73
2021/11/06 12:01:25;;;;;;;3.88;2.80;;;15.10;94.70;;;;;;5012478;28;20398;-77
2021/11/06 12:03:55;;;;;;;3.80;1.80;;;15.10;94.80;;;;;;5011972;28;20033;-76
2021/11/06 12:06:27;;;;;;;4.72;2.95;;;15.20;94.80;;;;;;5012128;28;20549;-76
2021/11/06 12:08:54;;;;;;;4.18;2.72;;;15.30;94.90;;;;;;5012293;28;20030;-75
2021/11/06 12:11:23;;;;;;;4.07;2.00;;;15.20;94.80;;;;;;5015430;28;20034;-73
2021/11/06 12:13:51;;;;;;;8.05;4.70;;;15.10;94.70;;;;;;5015600;28;20585;-74
2021/11/06 12:16:39;;;;;;;4.32;2.72;;;15.10;95.00;;;;;;5015227;28;20037;-73
2021/11/06 12:19:05;;;;;;;3.08;2.33;;;15.20;95.20;;;;;;5014869;28;20030;-72
2021/11/06 12:21:33;;;;;;;4.55;2.90;;;15.20;95.00;;;;;;4997596;28;20036;-74
2021/11/06 12:24:12;;;;;;;2.60;2.15;;;15.20;95.50;;;;;;5013999;28;20044;-73
2021/11/06 12:26:46;;;;;;;3.83;2.10;;;15.20;95.40;;;;;;5014295;28;20022;-73
2021/11/06 12:29:14;;;;;;;2.75;2.28;;;15.10;95.60;;;;;;5014499;28;20030;-74
2021/11/06 12:31:43;;;;;;;3.28;2.13;;;15.10;95.80;;;;;;5014333;28;20042;-74
2021/11/06 12:34:31;;;;;;;2.50;2.05;;;15.10;95.60;;;;;;5012281;28;20509;-73
2021/11/06 12:36:57;;;;;;;3.03;2.47;;;15.00;95.90;;;;;;4969864;28;20558;-73
2021/11/06 12:39:49;;;;;;;3.25;2.50;;;15.00;95.90;;;;;;5008184;28;20104;-75
2021/11/06 12:42:19;;;;;;;;;;;14.90;96.00;;;;;;4985444;28;20030;-74
2021/11/06 12:44:51;;;;;;;2.67;2.28;;;14.80;96.30;;;;;;5014252;28;19905;-74
2021/11/06 12:47:17;;;;;;;;;;;14.70;96.50;;;;;;5014856;28;20058;-75
2021/11/06 12:49:43;;;;;;;2.95;2.55;;;14.70;96.40;;;;;;5014038;28;20023;-75